Milpitas, California
Current Conditions -  °F | °C
As of 9:53 AM on Monday 26 Jan 2015 (Local Time) from KSJC Reporting Station
Broken Clouds Broken Clouds  
Wind Chill: 51°   Ceiling: 15000
Heat Index: 51°   Visibility: 10mi
Dew Point: 42°   Wind: 0mph
Humidity: 71%   Direction: NA
Pressure: 30.04"   Gusts: NA
Location:  37.43°N, 121.89°W
Report Text: KSJC 261753Z 00000KT 10SM FEW080 SCT120 BKN150 11/06 A3004 RMK AO2 SLP171 T01060056 10111 20039 53003
Loading
Personal Weather Stations






























Interactive Weather Map New forecast layout! Learn more

10-Day Weather Forecast

Advertisements
Track Severe Weather on mobile